createdAt,value
2023-05-09T00:01:20.705Z,8.58
2023-05-09T00:03:47.523Z,8.49
2023-05-09T00:06:15.359Z,8.43
2023-05-09T00:08:41.941Z,8.37
2023-05-09T00:11:08.538Z,8.33
2023-05-09T00:13:35.762Z,8.31
2023-05-09T00:16:03.518Z,8.29
2023-05-09T00:18:31.141Z,8.24
2023-05-09T00:20:58.170Z,8.21
2023-05-09T00:23:24.759Z,8.19
2023-05-09T00:25:51.411Z,8.19
2023-05-09T00:28:18.042Z,8.16
2023-05-09T00:30:44.691Z,8.09
2023-05-09T00:33:11.756Z,7.99
2023-05-09T00:35:38.444Z,7.95
2023-05-09T00:38:05.357Z,7.95
2023-05-09T00:40:31.996Z,7.87
2023-05-09T00:42:59.677Z,7.81
2023-05-09T00:45:26.726Z,7.75
2023-05-09T00:47:55.638Z,7.67
2023-05-09T00:50:22.319Z,7.64
2023-05-09T00:52:49.024Z,7.67
2023-05-09T00:55:16.361Z,7.67
2023-05-09T00:57:43.290Z,7.68
2023-05-09T01:00:13.337Z,7.64
2023-05-09T01:02:46.645Z,7.57
2023-05-09T01:05:15.111Z,7.53
2023-05-09T01:08:03.145Z,7.53
2023-05-09T01:10:55.124Z,7.41
2023-05-09T01:13:30.103Z,7.38
2023-05-09T01:15:59.654Z,7.32
2023-05-09T01:18:33.391Z,7.25
2023-05-09T01:21:11.276Z,7.14
2023-05-09T01:23:44.180Z,7.12
2023-05-09T01:26:20.099Z,7.18
2023-05-09T01:29:28.505Z,7.15
2023-05-09T01:31:57.640Z,7.19
2023-05-09T01:34:27.122Z,7.19
2023-05-09T01:36:58.551Z,7.21
2023-05-09T01:39:26.792Z,7.19
2023-05-09T01:41:56.574Z,7.19
2023-05-09T01:44:25.533Z,7.19
2023-05-09T01:46:54.805Z,7.20
2023-05-09T01:49:22.748Z,7.24
2023-05-09T01:51:51.049Z,7.23
2023-05-09T01:54:18.657Z,7.24
2023-05-09T01:56:47.090Z,7.22
2023-05-09T01:59:16.446Z,7.21
2023-05-09T02:01:45.548Z,7.20
2023-05-09T02:04:15.868Z,7.19
2023-05-09T02:06:44.661Z,7.16
2023-05-09T02:09:12.865Z,7.16
2023-05-09T02:11:40.539Z,7.15
2023-05-09T02:14:07.934Z,7.08
2023-05-09T02:16:35.452Z,7.04
2023-05-09T02:19:02.621Z,6.98
2023-05-09T02:21:29.350Z,6.93
2023-05-09T02:23:56.098Z,6.90
2023-05-09T02:26:23.084Z,6.89
2023-05-09T02:28:50.802Z,6.84
2023-05-09T02:31:20.297Z,6.79
2023-05-09T02:33:48.003Z,6.77
2023-05-09T02:36:16.592Z,6.77
2023-05-09T02:38:44.099Z,6.79
2023-05-09T02:41:14.866Z,6.77
2023-05-09T02:43:42.025Z,6.78
2023-05-09T02:46:10.234Z,6.74
2023-05-09T02:48:37.465Z,6.59
2023-05-09T02:51:05.047Z,6.51
2023-05-09T02:53:31.761Z,6.43
2023-05-09T02:55:58.721Z,6.46
2023-05-09T02:58:25.390Z,6.45
2023-05-09T03:00:52.007Z,6.43
2023-05-09T03:03:19.302Z,6.33
2023-05-09T03:05:46.579Z,6.39
2023-05-09T03:08:13.238Z,6.36
2023-05-09T03:10:39.913Z,6.36
2023-05-09T03:13:08.426Z,6.41
2023-05-09T03:15:35.194Z,6.41
2023-05-09T03:18:02.861Z,6.40
2023-05-09T03:20:29.672Z,6.39
2023-05-09T03:22:56.329Z,6.35
2023-05-09T03:25:22.987Z,6.33
2023-05-09T03:27:49.726Z,6.30
2023-05-09T03:30:16.451Z,6.29
2023-05-09T03:32:45.547Z,6.29
2023-05-09T03:35:12.430Z,6.28
2023-05-09T03:37:39.094Z,6.29
2023-05-09T03:40:07.809Z,6.31
2023-05-09T03:42:41.000Z,6.33
2023-05-09T03:45:08.127Z,6.28
2023-05-09T03:47:34.769Z,6.29
2023-05-09T03:50:01.830Z,6.25
2023-05-09T03:52:28.904Z,6.19
2023-05-09T03:54:55.639Z,6.13
2023-05-09T03:57:22.631Z,6.16
2023-05-09T03:59:51.313Z,6.11
2023-05-09T04:02:18.191Z,6.10
2023-05-09T04:04:47.323Z,6.02
2023-05-09T04:07:16.975Z,6.08
2023-05-09T04:09:45.160Z,6.09
2023-05-09T04:12:11.936Z,6.07
2023-05-09T04:14:39.270Z,6.04
2023-05-09T04:17:05.975Z,6.15
2023-05-09T04:19:32.715Z,6.24
2023-05-09T04:21:59.330Z,6.35
2023-05-09T04:24:26.443Z,6.40
2023-05-09T04:26:53.359Z,6.48
2023-05-09T04:29:23.066Z,6.52
2023-05-09T04:31:53.702Z,6.53
2023-05-09T04:34:23.769Z,6.56
2023-05-09T04:36:52.205Z,6.61
2023-05-09T04:39:19.710Z,6.67
2023-05-09T04:41:55.817Z,6.73
2023-05-09T04:44:23.426Z,6.63
2023-05-09T04:46:50.712Z,6.61
2023-05-09T04:49:17.346Z,6.63
2023-05-09T04:51:43.913Z,6.75
2023-05-09T04:54:10.575Z,7.00
2023-05-09T04:56:39.044Z,7.24
2023-05-09T04:59:05.767Z,7.42
2023-05-09T05:01:32.557Z,7.55
2023-05-09T05:04:00.017Z,7.68
2023-05-09T05:06:26.754Z,7.66
2023-05-09T05:08:53.312Z,7.79
2023-05-09T05:11:20.569Z,7.82
2023-05-09T05:13:47.245Z,7.79
2023-05-09T05:16:14.012Z,7.92
2023-05-09T05:18:41.157Z,8.05
2023-05-09T05:21:08.504Z,8.21
2023-05-09T05:23:35.366Z,8.33
2023-05-09T05:26:02.796Z,8.43
2023-05-09T05:28:31.393Z,8.56
2023-05-09T05:30:58.373Z,8.65
2023-05-09T05:33:25.094Z,8.92
2023-05-09T05:35:52.363Z,9.24
2023-05-09T05:38:19.318Z,9.46
2023-05-09T05:40:49.801Z,9.63
2023-05-09T05:43:16.722Z,9.79
2023-05-09T05:45:43.361Z,9.76
2023-05-09T05:48:15.395Z,9.68
2023-05-09T05:50:42.349Z,9.68
2023-05-09T05:53:10.060Z,9.62
2023-05-09T05:55:37.113Z,9.76
2023-05-09T05:58:05.206Z,9.75
2023-05-09T06:00:31.769Z,9.92
2023-05-09T06:03:03.710Z,10.01
2023-05-09T06:05:50.957Z,10.08
2023-05-09T06:08:17.984Z,10.12
2023-05-09T06:10:44.620Z,10.27
2023-05-09T06:13:11.276Z,10.45
2023-05-09T06:15:41.112Z,10.47
2023-05-09T06:18:08.780Z,10.63
2023-05-09T06:20:36.056Z,10.79
2023-05-09T06:23:02.661Z,10.89
2023-05-09T06:25:29.584Z,11.06
2023-05-09T06:27:56.328Z,11.23
2023-05-09T06:30:26.759Z,11.64
2023-05-09T06:32:54.963Z,12.03
2023-05-09T06:35:21.893Z,12.05
2023-05-09T06:37:49.017Z,12.52
2023-05-09T06:40:16.848Z,12.82
2023-05-09T06:42:43.753Z,13.00
2023-05-09T06:45:11.466Z,13.48
2023-05-09T06:47:38.118Z,13.55
2023-05-09T06:50:05.212Z,13.43
2023-05-09T06:52:31.759Z,13.42
2023-05-09T06:54:58.276Z,13.23
2023-05-09T06:57:25.059Z,12.94
2023-05-09T06:59:51.738Z,13.39
2023-05-09T07:02:18.596Z,13.48
2023-05-09T07:04:45.244Z,13.76
2023-05-09T07:07:11.899Z,13.98
2023-05-09T07:09:38.483Z,14.18
2023-05-09T07:12:05.557Z,14.89
2023-05-09T07:14:32.159Z,14.82
2023-05-09T07:17:13.775Z,14.91
2023-05-09T07:19:45.699Z,15.21
2023-05-09T07:22:13.514Z,14.32
2023-05-09T07:24:40.238Z,14.53
2023-05-09T07:27:07.108Z,14.38
2023-05-09T07:29:33.626Z,14.76
2023-05-09T07:32:00.504Z,14.54
2023-05-09T07:34:27.378Z,14.27
2023-05-09T07:36:54.646Z,14.51
2023-05-09T07:39:21.259Z,14.95
2023-05-09T07:41:48.775Z,14.67
2023-05-09T07:44:15.988Z,15.26
2023-05-09T07:46:42.880Z,15.45
2023-05-09T07:49:09.613Z,15.54
2023-05-09T07:51:36.213Z,15.29
2023-05-09T07:54:03.052Z,14.59
2023-05-09T07:56:29.606Z,14.71
2023-05-09T07:58:56.152Z,15.31
2023-05-09T08:01:22.755Z,15.23
2023-05-09T08:03:49.627Z,15.60
2023-05-09T08:06:16.277Z,15.42
2023-05-09T08:08:42.862Z,15.38
2023-05-09T08:11:09.703Z,15.43
2023-05-09T08:13:36.526Z,15.83
2023-05-09T08:16:03.214Z,16.04
2023-05-09T08:18:29.799Z,16.53
2023-05-09T08:20:56.489Z,16.61
2023-05-09T08:23:23.000Z,16.90
2023-05-09T08:25:54.229Z,17.10
2023-05-09T08:28:24.114Z,17.19
2023-05-09T08:30:51.736Z,17.25
2023-05-09T08:33:18.490Z,17.34
2023-05-09T08:35:45.758Z,17.42
2023-05-09T08:38:12.310Z,17.33
2023-05-09T08:40:40.798Z,17.20
2023-05-09T08:43:08.049Z,16.68
2023-05-09T08:46:06.886Z,17.23
2023-05-09T08:48:37.552Z,17.74
2023-05-09T08:51:07.675Z,18.12
2023-05-09T08:53:34.313Z,18.53
2023-05-09T08:56:03.745Z,18.63
2023-05-09T08:58:31.472Z,17.70
2023-05-09T09:00:59.118Z,17.51
2023-05-09T09:03:26.309Z,18.05
2023-05-09T09:05:54.922Z,18.41
2023-05-09T09:08:22.380Z,18.75
2023-05-09T09:10:49.565Z,19.19
2023-05-09T09:13:17.690Z,18.81
2023-05-09T09:15:46.311Z,18.76
2023-05-09T09:18:19.700Z,18.97
2023-05-09T09:21:15.771Z,19.04
2023-05-09T09:23:44.022Z,19.30
2023-05-09T09:26:10.987Z,19.58
2023-05-09T09:28:37.650Z,19.87
2023-05-09T09:31:21.798Z,19.36
2023-05-09T09:33:49.235Z,19.47
2023-05-09T09:36:15.805Z,20.09
2023-05-09T09:38:43.927Z,20.38
2023-05-09T09:41:12.891Z,20.64
2023-05-09T09:43:45.480Z,20.72
2023-05-09T09:46:14.390Z,21.01
2023-05-09T09:48:50.333Z,19.74
2023-05-09T09:51:18.436Z,19.97
2023-05-09T09:53:45.141Z,20.39
2023-05-09T09:56:11.803Z,20.71
2023-05-09T09:58:38.964Z,20.90
2023-05-09T10:01:16.697Z,21.06
2023-05-09T10:03:48.095Z,20.76
2023-05-09T10:06:16.438Z,21.01
2023-05-09T10:08:48.874Z,21.03
2023-05-09T10:11:15.488Z,21.40
2023-05-09T10:13:43.717Z,21.38
2023-05-09T10:16:11.638Z,21.14
2023-05-09T10:18:41.135Z,21.35
2023-05-09T10:21:11.299Z,20.85
2023-05-09T10:23:38.316Z,20.75
2023-05-09T10:26:22.996Z,21.17
2023-05-09T10:28:54.795Z,21.21
2023-05-09T10:31:29.273Z,21.26
2023-05-09T10:33:56.520Z,21.02
2023-05-09T10:36:26.344Z,21.19
2023-05-09T10:38:54.959Z,21.88
2023-05-09T10:41:22.521Z,21.87
2023-05-09T10:43:49.606Z,22.17
2023-05-09T10:46:16.814Z,21.99
2023-05-09T10:48:44.527Z,21.80
2023-05-09T10:51:13.064Z,22.13
2023-05-09T10:53:45.857Z,21.78
2023-05-09T10:56:32.502Z,20.76
2023-05-09T10:59:00.298Z,21.24
2023-05-09T11:01:39.231Z,21.99
2023-05-09T11:04:11.139Z,22.25
2023-05-09T11:06:52.234Z,22.68
2023-05-09T11:09:33.294Z,22.65
2023-05-09T11:12:09.645Z,22.65
2023-05-09T11:14:47.844Z,23.01
2023-05-09T11:17:21.222Z,23.54
2023-05-09T11:19:47.815Z,23.26
2023-05-09T11:22:22.266Z,23.10
2023-05-09T11:24:58.965Z,22.83
2023-05-09T11:27:28.484Z,23.47
2023-05-09T11:29:59.488Z,23.01
2023-05-09T11:32:40.404Z,22.47
2023-05-09T11:35:09.406Z,22.04
2023-05-09T11:37:51.338Z,22.29
2023-05-09T11:40:20.259Z,23.07
2023-05-09T11:42:50.080Z,23.88
2023-05-09T11:45:17.702Z,23.71
2023-05-09T11:47:46.272Z,24.08
2023-05-09T11:50:14.530Z,23.41
2023-05-09T11:52:42.118Z,22.67
2023-05-09T11:55:13.067Z,23.07
2023-05-09T11:57:41.624Z,23.01
2023-05-09T12:00:10.411Z,23.33
2023-05-09T12:02:38.302Z,23.00
2023-05-09T12:05:13.642Z,22.81
2023-05-09T12:07:41.550Z,23.66
2023-05-09T12:10:09.254Z,25.03
2023-05-09T12:12:46.337Z,26.04
2023-05-09T12:15:14.171Z,25.39
2023-05-09T12:17:47.073Z,24.54
2023-05-09T12:20:15.198Z,22.96
2023-05-09T12:22:44.887Z,22.98
2023-05-09T12:25:12.282Z,23.20
2023-05-09T12:27:40.660Z,22.99
2023-05-09T12:30:10.296Z,22.38
2023-05-09T12:32:40.317Z,22.29
2023-05-09T12:35:09.632Z,23.19
2023-05-09T12:37:36.440Z,25.22
2023-05-09T12:40:05.011Z,26.31
2023-05-09T12:42:32.310Z,26.60
2023-05-09T12:44:59.664Z,27.20
2023-05-09T12:47:30.082Z,26.95
2023-05-09T12:50:01.551Z,26.07
2023-05-09T12:52:38.127Z,26.90
2023-05-09T12:55:13.848Z,27.71
2023-05-09T12:57:41.983Z,27.56
2023-05-09T13:00:10.243Z,27.73
2023-05-09T13:02:39.844Z,28.51
2023-05-09T13:05:10.899Z,28.55
2023-05-09T13:07:45.154Z,28.89
2023-05-09T13:10:12.758Z,28.37
2023-05-09T13:12:40.478Z,28.86
2023-05-09T13:15:08.491Z,29.06
2023-05-09T13:17:35.120Z,28.65
2023-05-09T13:20:01.812Z,28.90
2023-05-09T13:22:28.591Z,28.83
2023-05-09T13:24:55.176Z,28.72
2023-05-09T13:27:21.785Z,28.30
2023-05-09T13:29:48.545Z,27.69
2023-05-09T13:32:15.117Z,28.70
2023-05-09T13:34:42.470Z,28.46
2023-05-09T13:37:09.009Z,28.92
2023-05-09T13:39:35.922Z,28.52
2023-05-09T13:42:02.564Z,29.57
2023-05-09T13:44:29.199Z,29.64
2023-05-09T13:46:57.630Z,30.15
2023-05-09T13:49:24.288Z,29.30
2023-05-09T13:51:50.879Z,30.02
2023-05-09T13:54:19.668Z,31.01
2023-05-09T13:56:46.242Z,29.76
2023-05-09T13:59:12.981Z,29.03
2023-05-09T14:01:39.709Z,27.99
2023-05-09T14:04:06.442Z,28.74
2023-05-09T14:06:33.358Z,29.87
2023-05-09T14:08:59.959Z,29.25
2023-05-09T14:11:26.728Z,28.82
2023-05-09T14:13:53.515Z,28.86
2023-05-09T14:16:21.094Z,28.98
2023-05-09T14:18:48.405Z,28.88
2023-05-09T14:21:15.522Z,29.29
2023-05-09T14:23:42.278Z,29.52
2023-05-09T14:26:08.965Z,30.17
2023-05-09T14:28:36.887Z,28.75
2023-05-09T14:31:03.599Z,27.30
2023-05-09T14:33:30.859Z,25.95
2023-05-09T14:35:57.504Z,25.05
2023-05-09T14:38:24.190Z,24.36
2023-05-09T14:40:50.938Z,24.26
2023-05-09T14:43:17.527Z,24.82
2023-05-09T14:45:44.381Z,24.15
2023-05-09T14:48:12.267Z,24.25
2023-05-09T14:50:40.098Z,24.44
2023-05-09T14:53:07.083Z,25.84
2023-05-09T14:55:33.908Z,26.93
2023-05-09T14:58:00.535Z,27.48
2023-05-09T15:00:28.534Z,27.49
2023-05-09T15:02:56.131Z,27.79
2023-05-09T15:05:22.802Z,27.99
2023-05-09T15:07:49.483Z,27.24
2023-05-09T15:10:16.332Z,26.19
2023-05-09T15:12:43.319Z,25.38
2023-05-09T15:15:13.292Z,25.11
2023-05-09T15:17:39.947Z,25.43
2023-05-09T15:20:07.453Z,25.14
2023-05-09T15:22:34.565Z,25.31
2023-05-09T15:25:02.036Z,25.74
2023-05-09T15:27:29.497Z,26.55
2023-05-09T15:29:56.205Z,26.63
2023-05-09T15:32:22.891Z,26.43
2023-05-09T15:34:49.510Z,26.06
2023-05-09T15:37:16.223Z,25.21
2023-05-09T15:39:43.642Z,25.17
2023-05-09T15:42:12.284Z,24.59
2023-05-09T15:44:40.106Z,24.89
2023-05-09T15:47:07.504Z,24.93
2023-05-09T15:49:34.477Z,25.17
2023-05-09T15:52:05.341Z,25.07
2023-05-09T15:54:33.556Z,24.56
2023-05-09T15:57:00.685Z,24.50
2023-05-09T15:59:27.662Z,24.31
2023-05-09T16:01:55.078Z,23.97
2023-05-09T16:04:22.107Z,24.13
2023-05-09T16:06:49.022Z,23.66
2023-05-09T16:09:15.832Z,23.61
2023-05-09T16:11:42.850Z,23.83
2023-05-09T16:14:11.432Z,23.89
2023-05-09T16:16:39.491Z,23.71
2023-05-09T16:19:06.779Z,23.13
2023-05-09T16:21:33.621Z,23.22
2023-05-09T16:24:02.949Z,23.19
2023-05-09T16:26:29.641Z,23.13
2023-05-09T16:28:56.654Z,22.65
2023-05-09T16:31:26.647Z,22.62
2023-05-09T16:33:54.205Z,22.67
2023-05-09T16:36:21.317Z,22.67
2023-05-09T16:38:48.131Z,22.29
2023-05-09T16:41:15.297Z,21.89
2023-05-09T16:43:42.718Z,21.87
2023-05-09T16:46:09.458Z,21.92
2023-05-09T16:48:36.145Z,21.64
2023-05-09T16:51:03.338Z,21.41
2023-05-09T16:53:29.934Z,21.04
2023-05-09T16:55:56.982Z,20.79
2023-05-09T16:58:23.672Z,20.62
2023-05-09T17:00:50.967Z,20.59
2023-05-09T17:03:17.625Z,20.32
2023-05-09T17:05:44.223Z,19.96
2023-05-09T17:08:11.334Z,19.80
2023-05-09T17:10:39.495Z,19.75
2023-05-09T17:13:08.842Z,19.65
2023-05-09T17:15:35.809Z,19.48
2023-05-09T17:18:03.137Z,19.41
2023-05-09T17:20:30.874Z,19.29
2023-05-09T17:22:57.848Z,19.18
2023-05-09T17:25:24.559Z,19.12
2023-05-09T17:27:51.100Z,19.01
2023-05-09T17:30:19.909Z,18.90
2023-05-09T17:32:48.048Z,18.81
2023-05-09T17:35:15.070Z,18.72
2023-05-09T17:37:41.666Z,18.62
2023-05-09T17:40:08.798Z,18.54
2023-05-09T17:42:35.430Z,18.51
2023-05-09T17:45:02.017Z,18.35
2023-05-09T17:47:29.096Z,18.37
2023-05-09T17:49:55.727Z,18.30
2023-05-09T17:52:22.599Z,18.26
2023-05-09T17:54:49.237Z,18.16
2023-05-09T17:57:15.772Z,18.05
2023-05-09T17:59:42.580Z,17.98
2023-05-09T18:02:09.181Z,17.88
2023-05-09T18:04:36.092Z,17.76
2023-05-09T18:07:02.754Z,17.75
2023-05-09T18:09:29.495Z,17.67
2023-05-09T18:11:56.109Z,17.58
2023-05-09T18:14:22.700Z,17.54
2023-05-09T18:16:49.367Z,17.48
2023-05-09T18:19:16.208Z,17.39
2023-05-09T18:21:42.897Z,17.34
2023-05-09T18:24:09.563Z,17.31
2023-05-09T18:26:36.189Z,17.28
2023-05-09T18:29:02.769Z,17.22
2023-05-09T18:31:31.235Z,17.16
2023-05-09T18:33:58.009Z,17.07
2023-05-09T18:36:24.637Z,17.01
2023-05-09T18:38:51.275Z,17.01
2023-05-09T18:41:18.018Z,16.97
2023-05-09T18:43:45.949Z,16.90
2023-05-09T18:46:17.461Z,16.81
2023-05-09T18:48:45.350Z,16.76
2023-05-09T18:51:12.156Z,16.70
2023-05-09T18:53:38.944Z,16.66
2023-05-09T18:56:05.651Z,16.62
2023-05-09T18:58:32.510Z,16.57
2023-05-09T19:00:59.226Z,16.50
2023-05-09T19:03:27.174Z,16.50
2023-05-09T19:05:54.362Z,16.39
2023-05-09T19:08:21.067Z,16.31
2023-05-09T19:10:47.850Z,16.24
2023-05-09T19:13:16.264Z,16.18
2023-05-09T19:15:43.614Z,16.12
2023-05-09T19:18:10.224Z,16.09
2023-05-09T19:20:36.873Z,16.12
2023-05-09T19:23:03.600Z,16.09
2023-05-09T19:25:33.650Z,16.04
2023-05-09T19:28:00.730Z,15.92
2023-05-09T19:30:27.459Z,15.90
2023-05-09T19:32:54.142Z,15.75
2023-05-09T19:35:20.837Z,15.76
2023-05-09T19:37:47.436Z,15.64
2023-05-09T19:40:14.819Z,15.68
2023-05-09T19:42:41.939Z,15.57
2023-05-09T19:45:09.166Z,15.55
2023-05-09T19:47:35.994Z,15.49
2023-05-09T19:50:02.686Z,15.41
2023-05-09T19:52:29.934Z,15.33
2023-05-09T19:54:56.672Z,15.28
2023-05-09T19:57:23.382Z,15.30
2023-05-09T19:59:49.897Z,15.59
2023-05-09T20:02:16.445Z,16.19
2023-05-09T20:04:49.721Z,16.12
2023-05-09T20:07:17.284Z,15.92
2023-05-09T20:09:44.092Z,15.84
2023-05-09T20:12:10.883Z,15.84
2023-05-09T20:14:37.642Z,15.62
2023-05-09T20:17:05.368Z,15.25
2023-05-09T20:19:33.183Z,14.83
2023-05-09T20:22:01.186Z,14.54
2023-05-09T20:24:28.610Z,14.37
2023-05-09T20:26:55.281Z,14.21
2023-05-09T20:29:22.045Z,14.21
2023-05-09T20:31:48.752Z,14.01
2023-05-09T20:34:17.938Z,13.99
2023-05-09T20:36:52.151Z,13.95
2023-05-09T20:39:23.202Z,13.94
2023-05-09T20:41:50.690Z,13.80
2023-05-09T20:44:17.876Z,13.65
2023-05-09T20:46:45.340Z,13.59
2023-05-09T20:49:12.467Z,13.51
2023-05-09T20:51:39.203Z,13.34
2023-05-09T20:54:06.421Z,13.34
2023-05-09T20:56:35.420Z,13.35
2023-05-09T20:59:03.988Z,13.39
2023-05-09T21:01:32.576Z,13.35
2023-05-09T21:03:59.368Z,13.23
2023-05-09T21:06:26.042Z,13.23
2023-05-09T21:08:52.680Z,13.22
2023-05-09T21:11:19.337Z,13.25
2023-05-09T21:13:45.906Z,13.47
2023-05-09T21:16:12.524Z,13.35
2023-05-09T21:18:39.076Z,13.27
2023-05-09T21:21:08.057Z,13.09
2023-05-09T21:23:34.963Z,13.02
2023-05-09T21:26:02.425Z,13.05
2023-05-09T21:28:29.331Z,13.01
2023-05-09T21:30:56.298Z,12.98
2023-05-09T21:33:22.994Z,13.03
2023-05-09T21:35:49.664Z,12.99
2023-05-09T21:38:16.244Z,12.94
2023-05-09T21:40:42.827Z,12.97
2023-05-09T21:43:09.434Z,13.09
2023-05-09T21:45:36.002Z,13.02
2023-05-09T21:48:02.842Z,13.05
2023-05-09T21:50:29.483Z,12.92
2023-05-09T21:52:59.202Z,12.81
2023-05-09T21:55:25.891Z,12.76
2023-05-09T21:57:52.485Z,12.72
2023-05-09T22:00:19.630Z,12.67
2023-05-09T22:02:47.007Z,12.73
2023-05-09T22:05:13.713Z,12.70
2023-05-09T22:07:40.337Z,12.77
2023-05-09T22:10:07.595Z,12.77
2023-05-09T22:12:34.186Z,12.74
2023-05-09T22:15:00.904Z,12.71
2023-05-09T22:17:27.692Z,12.78
2023-05-09T22:19:54.541Z,12.75
2023-05-09T22:22:21.371Z,12.62
2023-05-09T22:24:49.600Z,12.56
2023-05-09T22:27:16.343Z,12.61
2023-05-09T22:29:42.880Z,12.93
2023-05-09T22:32:10.032Z,12.91
2023-05-09T22:34:36.816Z,12.66
2023-05-09T22:37:03.573Z,12.68
2023-05-09T22:39:30.894Z,12.60
2023-05-09T22:41:57.506Z,12.51
2023-05-09T22:44:24.067Z,12.40
2023-05-09T22:46:50.800Z,12.39
2023-05-09T22:49:17.685Z,12.37
2023-05-09T22:51:44.266Z,12.33
2023-05-09T22:54:10.917Z,12.30
2023-05-09T22:56:37.538Z,12.34
2023-05-09T22:59:04.541Z,12.33
2023-05-09T23:01:31.559Z,12.42
2023-05-09T23:03:58.160Z,12.39
2023-05-09T23:06:25.001Z,12.29
2023-05-09T23:08:51.763Z,12.36
2023-05-09T23:11:18.484Z,12.37
2023-05-09T23:13:45.178Z,12.28
2023-05-09T23:16:11.738Z,12.25
2023-05-09T23:18:38.437Z,12.25
2023-05-09T23:21:05.182Z,12.26
2023-05-09T23:23:31.752Z,12.27
2023-05-09T23:25:58.738Z,12.44
2023-05-09T23:28:25.381Z,12.31
2023-05-09T23:30:53.893Z,12.23
2023-05-09T23:33:20.587Z,12.27
2023-05-09T23:35:48.225Z,12.33
2023-05-09T23:38:15.007Z,12.33
2023-05-09T23:40:45.031Z,12.25
2023-05-09T23:43:12.644Z,12.16
2023-05-09T23:45:39.881Z,12.24
2023-05-09T23:48:07.499Z,12.21
2023-05-09T23:50:34.196Z,12.17
2023-05-09T23:53:00.839Z,12.16
2023-05-09T23:55:27.959Z,12.13
2023-05-09T23:57:54.700Z,12.09
